Time;durP1;ratioP1;P1;durP2;ratioP2;P2;SDS_P1;SDS_P2;PMS_P1;PMS_P2;Temp;Humidity;BMP_temperature;BMP_pressure;BME280_temperature;BME280_humidity;BME280_pressure;Samples;Min_cycle;Max_cycle;Signal;HPM_P1;HPM_P2
2022/04/01 00:00:15;;;;;;;22.67;12.60;;;;;;;0.96;69.15;100746.09;5194514;28;20840;-41
2022/04/01 00:02:49;;;;;;;22.52;11.30;;;;;;;0.94;69.29;100746.19;5206688;28;20496;-42
2022/04/01 00:05:22;;;;;;;18.83;10.45;;;;;;;0.92;69.12;100751.47;5201476;28;20490;-42
2022/04/01 00:07:55;;;;;;;23.50;11.40;;;;;;;0.88;69.40;100737.00;5199082;28;20403;-41
2022/04/01 00:10:27;;;;;;;19.80;11.23;;;;;;;0.99;69.27;100743.31;5202026;28;20453;-43
2022/04/01 00:13:00;;;;;;;18.88;11.18;;;;;;;1.05;69.13;100754.19;5206253;28;20417;-41
2022/04/01 00:15:33;;;;;;;20.77;11.18;;;;;;;1.07;69.29;100749.75;5214577;28;20475;-40
2022/04/01 00:18:07;;;;;;;19.02;11.38;;;;;;;1.10;68.99;100746.13;5219399;28;20907;-41
2022/04/01 00:20:39;;;;;;;21.33;11.70;;;;;;;1.09;68.84;100745.28;5221140;28;21926;-43
2022/04/01 00:23:14;;;;;;;19.02;10.25;;;;;;;1.14;69.05;100750.22;5202693;28;20431;-40
2022/04/01 00:25:46;;;;;;;2.60;2.50;;;;;;;1.12;69.17;100754.69;5204263;28;20441;-39
2022/04/01 00:28:19;;;;;;;2.72;2.63;;;;;;;0.98;69.01;100742.47;5215893;28;20505;-40
2022/04/01 00:30:53;;;;;;;2.65;2.55;;;;;;;1.06;69.03;100752.44;5199079;28;20449;-39
2022/04/01 00:33:28;;;;;;;3.88;3.78;;;;;;;1.05;69.01;100758.56;5201501;28;20419;-43
2022/04/01 00:36:00;;;;;;;2.70;2.60;;;;;;;1.10;69.34;100756.53;5200740;28;20538;-39
2022/04/01 00:38:32;;;;;;;2.70;2.60;;;;;;;1.09;69.30;100760.06;5204927;28;20420;-42
2022/04/01 00:41:05;;;;;;;2.60;2.50;;;;;;;0.99;69.10;100744.19;5196662;28;20810;-40
2022/04/01 00:43:37;;;;;;;2.75;2.55;;;;;;;1.11;69.23;100764.22;5205221;28;20909;-39
2022/04/01 00:46:10;;;;;;;2.70;2.60;;;;;;;1.13;69.26;100777.16;5199188;28;20410;-39
2022/04/01 00:48:44;;;;;;;2.60;2.50;;;;;;;0.94;69.18;100784.38;5193524;28;20940;-39
2022/04/01 00:51:19;;;;;;;2.53;2.42;;;;;;;1.10;69.40;100765.16;5201337;28;20517;-41
2022/04/01 00:53:52;;;;;;;2.40;2.30;;;;;;;1.07;69.24;100757.53;5194185;28;20392;-40
2022/04/01 00:56:25;;;;;;;2.70;2.60;;;;;;;1.13;69.35;100771.94;5194915;28;20464;-40
2022/04/01 00:58:58;;;;;;;1.88;1.88;;;;;;;1.15;69.30;100775.31;5197290;28;20514;-40
2022/04/01 01:01:31;;;;;;;1.92;1.92;;;;;;;1.19;69.13;100781.16;5197123;28;20771;-40
2022/04/01 01:04:07;;;;;;;2.78;2.67;;;;;;;1.16;69.33;100763.97;5193467;28;20417;-40
2022/04/01 01:06:42;;;;;;;3.30;3.20;;;;;;;1.01;69.62;100757.06;5194221;28;20431;-43
2022/04/01 01:09:15;;;;;;;2.38;2.28;;;;;;;1.10;69.29;100766.94;5203062;28;20577;-38
2022/04/01 01:11:51;;;;;;;2.90;2.80;;;;;;;1.04;69.56;100769.91;5198770;28;20433;-39
2022/04/01 01:14:28;;;;;;;2.20;2.10;;;;;;;0.94;69.49;100776.56;5212106;28;20400;-40
2022/04/01 01:17:02;;;;;;;3.35;3.25;;;;;;;1.02;69.24;100782.13;5219261;28;20481;-41
2022/04/01 01:19:35;;;;;;;2.60;2.50;;;;;;;1.04;69.29;100772.50;5196105;28;20405;-39
2022/04/01 01:22:08;;;;;;;2.28;2.17;;;;;;;1.05;69.33;100785.41;5209364;28;20421;-41
2022/04/01 01:24:43;;;;;;;2.45;2.35;;;;;;;1.06;69.50;100783.66;5216870;28;21673;-40
2022/04/01 01:27:16;;;;;;;2.58;2.47;;;;;;;1.07;69.51;100777.53;5220214;28;20621;-40
2022/04/01 01:29:48;;;;;;;3.70;3.55;;;;;;;1.08;69.35;100781.78;5220351;28;20489;-40
2022/04/01 01:32:22;;;;;;;5.13;3.60;;;;;;;1.14;69.38;100789.22;5216542;28;20516;-40
2022/04/01 01:34:55;;;;;;;2.70;2.60;;;;;;;1.12;69.51;100793.69;5216408;28;20420;-41
2022/04/01 01:37:28;;;;;;;2.97;2.88;;;;;;;1.14;69.63;100778.81;5217168;28;20428;-39
2022/04/01 01:40:06;;;;;;;2.70;2.60;;;;;;;0.86;69.50;100748.41;5217904;28;20777;-40
2022/04/01 01:42:38;;;;;;;3.00;2.90;;;;;;;1.12;69.41;100832.72;5195581;28;20765;-39
2022/04/01 01:45:11;;;;;;;2.90;2.70;;;;;;;1.13;69.57;100797.97;5207714;28;20429;-40
2022/04/01 01:47:43;;;;;;;3.20;3.00;;;;;;;1.18;69.50;100780.34;5197906;28;20506;-40
2022/04/01 01:55:57;;;;;;;2.80;2.70;;;;;;;1.17;69.42;100803.81;5196625;28;20832;-40
2022/04/01 01:58:29;;;;;;;3.00;2.90;;;;;;;1.12;69.47;100801.50;5198442;28;20437;-40
2022/04/01 02:01:02;;;;;;;2.63;2.53;;;;;;;1.19;69.23;100800.19;5197509;28;20402;-40
2022/04/01 02:03:34;;;;;;;8.90;3.03;;;;;;;1.22;69.27;100802.63;5196893;28;20504;-40
2022/04/01 02:06:06;;;;;;;2.20;2.10;;;;;;;1.24;69.47;100816.38;5200939;28;21086;-40
2022/04/01 02:08:39;;;;;;;2.45;2.35;;;;;;;1.20;69.37;100809.66;5214446;28;20501;-41
2022/04/01 02:11:13;;;;;;;1.98;1.95;;;;;;;1.24;69.49;100815.53;5221978;28;20498;-46
2022/04/01 02:13:46;;;;;;;2.45;2.33;;;;;;;1.07;69.12;100793.94;5209291;28;20431;-40
2022/04/01 02:16:22;;;;;;;3.50;3.30;;;;;;;1.26;69.49;100814.50;5216684;28;20417;-42
2022/04/01 02:18:54;;;;;;;2.58;2.47;;;;;;;1.29;69.25;100824.75;5217129;28;20410;-40
2022/04/01 02:21:27;;;;;;;2.95;2.85;;;;;;;1.29;69.21;100819.53;5213020;28;20409;-40
2022/04/01 02:24:00;;;;;;;2.97;2.88;;;;;;;1.31;69.23;100825.50;5216391;28;20476;-39
2022/04/01 02:26:35;;;;;;;2.53;2.43;;;;;;;1.31;69.60;100828.09;5209574;28;20466;-39
2022/04/01 02:29:10;;;;;;;3.20;3.00;;;;;;;1.31;69.37;100833.31;5200470;28;20390;-40
2022/04/01 02:31:42;;;;;;;2.80;2.60;;;;;;;1.26;69.57;100811.91;5195094;28;20439;-41
2022/04/01 02:34:15;;;;;;;2.80;2.70;;;;;;;1.25;69.67;100838.03;5200948;28;20502;-38
2022/04/01 02:36:48;;;;;;;2.53;2.42;;;;;;;1.24;69.48;100824.19;5202667;28;20498;-40
2022/04/01 02:39:20;;;;;;;2.78;2.67;;;;;;;1.23;69.56;100825.09;5206447;28;20924;-41
2022/04/01 02:41:54;;;;;;;3.05;2.95;;;;;;;1.34;69.25;100840.09;5202018;28;21480;-40
2022/04/01 02:44:26;;;;;;;2.55;2.45;;;;;;;1.39;69.26;100840.63;5201028;28;20404;-40
2022/04/01 02:46:59;;;;;;;2.53;2.42;;;;;;;1.37;69.17;100843.34;5208409;28;20417;-40
2022/04/01 02:49:31;;;;;;;2.90;2.80;;;;;;;1.40;69.37;100851.91;5196352;28;20544;-41
2022/04/01 02:52:05;;;;;;;2.67;2.58;;;;;;;1.44;69.25;100848.19;5201308;28;20429;-40
2022/04/01 02:54:38;;;;;;;2.75;2.22;;;;;;;1.46;69.15;100854.16;5198857;28;20441;-41
2022/04/01 02:57:12;;;;;;;2.35;2.25;;;;;;;1.49;69.16;100848.78;5204427;28;20431;-41
2022/04/01 02:59:44;;;;;;;2.47;2.38;;;;;;;1.50;69.04;100853.03;5196148;28;20441;-42
2022/04/01 03:02:17;;;;;;;2.33;2.20;;;;;;;1.44;69.31;100843.00;5211448;28;20508;-41
2022/04/01 03:04:52;;;;;;;2.53;2.42;;;;;;;1.47;69.47;100846.25;5213007;28;20514;-41
2022/04/01 03:07:25;;;;;;;3.00;2.80;;;;;;;1.54;69.07;100859.72;5216372;28;20774;-44
2022/04/01 03:09:57;;;;;;;2.47;2.38;;;;;;;1.51;69.49;100859.91;5225245;28;20403;-40
2022/04/01 03:12:31;;;;;;;2.58;2.47;;;;;;;1.58;69.02;100858.59;5217317;28;20749;-40
2022/04/01 03:15:06;;;;;;;1.90;1.90;;;;;;;1.54;69.30;100870.13;5194029;28;20482;-38
2022/04/01 03:17:39;;;;;;;2.55;2.45;;;;;;;1.50;69.14;100868.66;5207880;28;20508;-40
2022/04/01 03:20:13;;;;;;;3.28;3.08;;;;;;;1.50;69.40;100885.09;5198881;28;20435;-40
2022/04/01 03:22:46;;;;;;;2.67;2.47;;;;;;;1.50;69.51;100873.84;5197530;28;20455;-40
2022/04/01 03:25:21;;;;;;;2.47;2.38;;;;;;;1.49;69.76;100885.19;5201886;28;20483;-41
2022/04/01 03:27:54;;;;;;;2.55;2.45;;;;;;;1.55;69.45;100875.25;5197740;28;20489;-41
2022/04/01 03:30:27;;;;;;;2.40;2.30;;;;;;;1.57;69.76;100880.38;5198950;28;20745;-42
2022/04/01 03:33:00;;;;;;;2.10;2.00;;;;;;;1.61;69.54;100879.25;5199518;28;20407;-41
2022/04/01 03:35:33;;;;;;;2.33;2.22;;;;;;;1.67;69.37;100883.25;5195393;28;20417;-40
2022/04/01 03:38:10;;;;;;;2.20;2.10;;;;;;;1.70;69.45;100890.88;5197095;28;20927;-40
2022/04/01 03:40:45;;;;;;;1.80;1.80;;;;;;;1.72;69.62;100884.66;5198228;28;20415;-41
2022/04/01 03:43:20;;;;;;;2.40;2.30;;;;;;;1.75;69.40;100879.25;5195017;28;20419;-41
2022/04/01 03:45:55;;;;;;;2.27;2.17;;;;;;;1.70;69.31;100870.06;5202254;28;20378;-39
2022/04/01 03:48:35;;;;;;;2.42;2.33;;;;;;;1.73;69.29;100881.13;5197901;28;20917;-40
2022/04/01 03:51:07;;;;;;;2.28;2.17;;;;;;;1.85;69.45;100890.78;5203552;28;20487;-41
2022/04/01 03:53:44;;;;;;;2.40;2.30;;;;;;;1.87;69.21;100893.31;5201519;28;20475;-47
2022/04/01 03:56:20;;;;;;;2.42;2.33;;;;;;;1.94;69.25;100891.19;5198822;28;21014;-40
2022/04/01 03:59:00;;;;;;;2.38;2.28;;;;;;;1.96;69.32;100904.97;5200268;28;22667;-42
2022/04/01 04:01:33;;;;;;;1.95;1.95;;;;;;;1.95;69.42;100903.25;5199259;28;20885;-40
2022/04/01 04:04:06;;;;;;;2.20;2.10;;;;;;;1.89;69.11;100890.59;5196153;28;20886;-44
2022/04/01 04:06:40;;;;;;;2.58;2.38;;;;;;;2.02;69.17;100897.59;5195906;28;20425;-39
2022/04/01 04:09:14;;;;;;;3.70;2.33;;;;;;;2.03;69.07;100894.06;5195887;28;20446;-40
2022/04/01 04:11:46;;;;;;;2.25;2.15;;;;;;;2.03;69.09;100906.25;5202082;28;20512;-40
2022/04/01 04:14:22;;;;;;;2.50;2.40;;;;;;;2.04;69.03;100900.09;5198908;28;20505;-41
2022/04/01 04:17:05;;;;;;;2.25;2.15;;;;;;;1.85;68.95;100885.59;5220349;28;20480;-42
2022/04/01 04:19:50;;;;;;;1.67;1.67;;;;;;;2.08;69.00;100912.03;5191513;28;20507;-40
2022/04/01 04:22:35;;;;;;;2.05;2.03;;;;;;;2.03;69.01;100908.84;5198525;28;20444;-41
2022/04/01 04:25:10;;;;;;;1.70;1.70;;;;;;;2.07;69.01;100911.19;5195741;28;20769;-40
2022/04/01 04:27:52;;;;;;;2.03;2.00;;;;;;;2.14;69.16;100929.03;5194376;28;20453;-42
2022/04/01 04:30:33;;;;;;;1.50;1.50;;;;;;;2.14;69.15;100922.06;5207413;28;20419;-40
2022/04/01 04:33:08;;;;;;;1.50;1.50;;;;;;;2.13;69.07;100930.81;5198387;28;20422;-40
2022/04/01 04:35:42;;;;;;;2.40;2.30;;;;;;;2.08;69.10;100922.44;5208016;28;20495;-40
2022/04/01 04:38:16;;;;;;;2.05;1.95;;;;;;;2.08;69.01;100922.44;5225792;28;20469;-40
2022/04/01 04:40:49;;;;;;;2.55;2.45;;;;;;;2.22;69.17;100951.09;5218873;28;20420;-40
2022/04/01 04:43:23;;;;;;;2.00;1.90;;;;;;;2.22;69.11;100951.09;5207289;28;20780;-41
2022/04/01 04:45:58;;;;;;;1.60;1.60;;;;;;;2.23;68.93;100946.72;5209500;28;21188;-40
2022/04/01 04:48:32;;;;;;;1.88;1.80;;;;;;;2.25;69.22;100952.69;5192595;28;20432;-40
2022/04/01 04:51:05;;;;;;;1.48;1.48;;;;;;;2.15;69.07;100949.78;5206591;28;20510;-40
2022/04/01 04:54:15;;;;;;;2.78;2.60;;;;;;;2.25;69.19;100960.50;5213619;28;20400;-40
2022/04/01 04:56:52;;;;;;;1.63;1.63;;;;;;;2.21;69.36;100978.09;5221128;28;20436;-40
2022/04/01 04:59:24;;;;;;;1.90;1.85;;;;;;;2.23;69.04;100965.81;5207375;28;20426;-40
2022/04/01 05:02:03;;;;;;;3.70;3.38;;;;;;;2.26;69.21;100973.44;5207117;28;20516;-42
2022/04/01 05:04:51;;;;;;;2.17;2.08;;;;;;;2.33;69.14;100973.06;5210431;28;20410;-40
2022/04/01 05:07:39;;;;;;;1.60;1.60;;;;;;;2.31;69.25;100976.59;5209859;28;20420;-40
2022/04/01 05:10:18;;;;;;;2.75;2.55;;;;;;;2.33;69.08;100983.50;5206455;28;20495;-40
2022/04/01 05:13:02;;;;;;;2.30;2.20;;;;;;;2.27;68.97;100972.50;5207068;28;20425;-40
2022/04/01 05:15:37;;;;;;;2.50;2.40;;;;;;;2.33;69.21;100986.94;5206376;28;20777;-39
2022/04/01 05:18:14;;;;;;;1.80;1.80;;;;;;;2.34;69.28;100990.38;5232231;28;20497;-40
2022/04/01 05:20:55;;;;;;;1.50;1.50;;;;;;;2.34;69.04;100982.56;5244261;28;20425;-41
2022/04/01 05:23:42;;;;;;;2.05;2.03;;;;;;;2.36;69.21;101010.22;5200392;28;20415;-40
2022/04/01 05:26:22;;;;;;;2.30;2.20;;;;;;;2.34;69.08;100996.41;5217892;28;20497;-40
2022/04/01 05:28:59;;;;;;;1.75;1.75;;;;;;;2.22;69.10;100977.16;5210555;28;20407;-39
2022/04/01 05:31:37;;;;;;;1.90;1.90;;;;;;;2.45;69.22;101008.81;5199091;28;20519;-40
2022/04/01 05:34:19;;;;;;;1.83;1.83;;;;;;;2.48;69.31;101013.84;5205028;28;20873;-39
2022/04/01 05:36:53;;;;;;;1.90;1.90;;;;;;;2.49;68.95;101025.94;5208454;28;20504;-39
2022/04/01 05:39:28;;;;;;;2.33;2.23;;;;;;;2.51;68.86;101024.91;5214554;28;20405;-40
2022/04/01 05:42:01;;;;;;;1.73;1.73;;;;;;;2.50;68.97;101038.03;5223796;28;20479;-43
2022/04/01 05:44:35;;;;;;;2.30;2.20;;;;;;;2.51;68.96;101019.72;5203069;28;20476;-39
2022/04/01 05:47:07;;;;;;;2.60;2.40;;;;;;;2.54;69.18;101032.56;5195485;28;20779;-40
2022/04/01 05:49:44;;;;;;;2.47;2.28;;;;;;;2.57;69.02;101031.53;5208525;28;20407;-41
2022/04/01 05:52:17;;;;;;;1.40;1.40;;;;;;;2.58;68.82;101043.63;5224920;28;20410;-40
2022/04/01 05:54:51;;;;;;;1.90;1.80;;;;;;;2.63;68.72;101044.16;5216175;28;20415;-40
2022/04/01 05:57:23;;;;;;;2.25;2.15;;;;;;;2.66;68.66;101053.59;5221809;28;20483;-40
2022/04/01 05:59:56;;;;;;;1.60;1.60;;;;;;;2.65;68.81;101052.75;5204594;28;20483;-47
2022/04/01 06:02:59;;;;;;;1.90;1.88;;;;;;;2.64;68.65;101051.09;5190740;28;20491;-44
2022/04/01 06:05:39;;;;;;;1.70;1.70;;;;;;;2.69;68.56;101049.00;5194860;28;20405;-42
2022/04/01 06:08:20;;;;;;;1.58;1.58;;;;;;;2.71;68.34;101070.63;5201261;28;20496;-44
2022/04/01 06:11:06;;;;;;;1.67;1.67;;;;;;;2.72;68.67;101072.28;5219033;28;20905;-41
2022/04/01 06:13:54;;;;;;;2.00;1.90;;;;;;;2.73;68.68;101063.56;5202489;28;20409;-40
2022/04/01 06:16:34;;;;;;;3.00;2.80;;;;;;;2.74;68.34;101075.66;5207572;28;20488;-40
2022/04/01 06:19:22;;;;;;;1.77;1.73;;;;;;;2.72;68.28;101064.47;5206063;28;20905;-41
2022/04/01 06:22:05;;;;;;;2.30;2.20;;;;;;;2.65;68.45;101036.28;5210934;28;20425;-40
2022/04/01 06:24:51;;;;;;;2.00;2.00;;;;;;;2.83;68.32;101073.44;5210975;28;20460;-41
2022/04/01 06:27:30;;;;;;;2.00;2.00;;;;;;;2.77;68.21;101057.22;5196328;28;21402;-43
2022/04/01 06:30:07;;;;;;;1.70;1.70;;;;;;;2.86;68.04;101061.03;5211193;28;20421;-40
2022/04/01 06:32:53;;;;;;;2.00;1.90;;;;;;;2.85;68.35;101071.53;5207976;28;20461;-41
2022/04/01 06:35:30;;;;;;;2.13;2.03;;;;;;;2.90;68.34;101082.53;5203997;28;20437;-43
2022/04/01 06:38:06;;;;;;;1.95;1.92;;;;;;;2.90;68.51;101079.94;5203061;28;20423;-42
2022/04/01 06:40:47;;;;;;;1.45;1.45;;;;;;;2.94;68.32;101094.47;5207918;28;20504;-40
2022/04/01 06:43:19;;;;;;;2.03;1.95;;;;;;;2.98;68.17;101095.97;5202311;28;20456;-41
2022/04/01 06:45:53;;;;;;;1.52;1.52;;;;;;;2.66;68.01;101038.78;5207388;28;20557;-41
2022/04/01 06:48:26;;;;;;;1.70;1.70;;;;;;;3.12;67.94;101124.63;5196011;28;20420;-44
2022/04/01 06:50:59;;;;;;;1.77;1.77;;;;;;;3.19;68.03;101099.84;5197942;28;20417;-45
2022/04/01 06:53:36;;;;;;;2.00;1.90;;;;;;;3.25;68.02;101109.06;5205303;28;20448;-43
2022/04/01 06:56:09;;;;;;;2.45;2.35;;;;;;;3.27;67.71;101107.19;5191678;28;20827;-41
2022/04/01 06:58:41;;;;;;;1.50;1.50;;;;;;;3.35;67.67;101107.56;5193606;28;20432;-44
2022/04/01 07:01:16;;;;;;;1.20;1.20;;;;;;;3.06;67.60;101066.78;5205040;28;20417;-43
2022/04/01 07:03:48;;;;;;;2.40;1.40;;;;;;;3.46;67.43;101112.09;5215903;28;20875;-42
2022/04/01 07:06:22;;;;;;;1.40;1.40;;;;;;;3.56;67.28;101110.59;5206181;28;20397;-44
2022/04/01 07:08:56;;;;;;;1.40;1.40;;;;;;;3.47;67.23;101100.72;5207313;28;20421;-42
2022/04/01 07:11:29;;;;;;;1.60;1.60;;;;;;;3.75;67.15;101112.00;5213138;28;20779;-42
2022/04/01 07:14:02;;;;;;;2.05;2.00;;;;;;;3.86;67.07;101122.59;5215331;28;20413;-41
2022/04/01 07:16:34;;;;;;;3.78;2.28;;;;;;;3.79;67.27;101123.94;5216245;28;20847;-44
2022/04/01 07:19:07;;;;;;;4.73;3.00;;;;;;;3.77;67.58;101128.41;5197858;28;20536;-42
2022/04/01 07:21:39;;;;;;;2.85;2.35;;;;;;;3.67;67.59;101131.63;5194849;28;20495;-40
2022/04/01 07:24:13;;;;;;;2.92;2.65;;;;;;;3.67;67.29;101136.00;5220662;28;20915;-40
2022/04/01 07:26:46;;;;;;;4.85;2.53;;;;;;;3.67;67.41;101138.63;5209852;28;20524;-44
2022/04/01 07:29:19;;;;;;;2.58;2.00;;;;;;;3.48;67.11;101115.44;5200161;28;20437;-40
2022/04/01 07:34:45;;;;;;;3.65;3.10;;;;;;;3.79;67.05;101145.66;5203890;28;20423;-43
2022/04/01 07:37:21;;;;;;;5.38;2.38;;;;;;;3.86;66.48;101154.78;5205420;28;20982;-42
2022/04/01 07:39:57;;;;;;;4.70;2.90;;;;;;;3.92;66.57;101153.56;5212980;28;20927;-42
2022/04/01 07:42:30;;;;;;;5.43;4.10;;;;;;;3.90;66.50;101142.34;5208015;28;20417;-41
2022/04/01 07:45:04;;;;;;;6.93;3.22;;;;;;;3.98;66.33;101144.50;5193537;28;20498;-43
2022/04/01 07:47:37;;;;;;;5.35;3.78;;;;;;;4.05;66.09;101162.25;5205008;28;20896;-44
2022/04/01 07:50:10;;;;;;;6.03;3.45;;;;;;;4.10;66.01;101165.44;5205673;28;20452;-43
2022/04/01 07:52:43;;;;;;;8.23;3.90;;;;;;;4.06;66.13;101171.81;5207285;28;20444;-42
2022/04/01 07:55:18;;;;;;;6.30;3.42;;;;;;;4.04;66.21;101168.44;5205820;28;20406;-40
2022/04/01 07:57:53;;;;;;;7.97;4.13;;;;;;;4.15;65.84;101179.06;5208681;28;20578;-41
2022/04/01 08:00:25;;;;;;;4.05;3.10;;;;;;;4.14;65.93;101179.97;5206223;28;20415;-41
2022/04/01 08:02:58;;;;;;;4.80;3.17;;;;;;;4.13;65.92;101186.13;5199171;28;20698;-40
2022/04/01 08:05:30;;;;;;;5.53;3.40;;;;;;;4.06;66.07;101182.25;5196236;28;22281;-41
2022/04/01 08:08:03;;;;;;;5.18;4.10;;;;;;;4.02;66.01;101185.16;5196781;28;20440;-41
2022/04/01 08:10:37;;;;;;;3.33;3.03;;;;;;;4.07;66.11;101197.00;5204701;28;20465;-42
2022/04/01 08:13:11;;;;;;;5.32;3.00;;;;;;;4.11;66.03;101192.41;5208037;28;20522;-44
2022/04/01 08:15:45;;;;;;;3.80;2.80;;;;;;;4.20;65.81;101193.59;5209621;28;20424;-41
2022/04/01 08:18:19;;;;;;;3.03;2.35;;;;;;;4.06;65.55;101189.28;5205766;28;20417;-42
2022/04/01 08:20:52;;;;;;;3.38;2.35;;;;;;;4.38;65.38;101195.00;5204980;28;20429;-41
2022/04/01 08:23:24;;;;;;;4.90;2.13;;;;;;;4.40;65.71;101200.97;5210927;28;21159;-41
2022/04/01 08:25:58;;;;;;;4.60;2.33;;;;;;;4.48;65.52;101210.91;5212867;28;20407;-41
2022/04/01 08:28:32;;;;;;;5.33;2.10;;;;;;;4.62;65.00;101209.06;5219424;28;20530;-41
2022/04/01 08:31:05;;;;;;;4.35;2.60;;;;;;;4.69;64.99;101203.44;5207658;28;20426;-40
2022/04/01 08:33:39;;;;;;;2.97;2.10;;;;;;;4.81;64.62;101220.91;5191418;28;20430;-41
2022/04/01 08:36:11;;;;;;;12.70;2.40;;;;;;;4.99;64.45;101197.91;5193371;28;20421;-40
2022/04/01 08:38:44;;;;;;;3.85;1.98;;;;;;;5.20;63.97;101219.13;5198029;28;20903;-40
2022/04/01 08:41:20;;;;;;;4.60;2.33;;;;;;;5.37;63.72;101221.44;5209046;28;20502;-42
2022/04/01 08:43:54;;;;;;;3.72;2.28;;;;;;;5.46;63.48;101225.19;5214567;28;20432;-41
2022/04/01 08:46:26;;;;;;;4.70;2.60;;;;;;;5.55;63.31;101230.63;5214880;28;20471;-41
2022/04/01 08:49:00;;;;;;;3.80;2.10;;;;;;;5.70;62.88;101227.88;5213626;28;20425;-42
2022/04/01 08:51:32;;;;;;;3.33;2.17;;;;;;;5.70;62.78;101233.97;5210092;28;20430;-42
2022/04/01 08:54:05;;;;;;;3.20;2.45;;;;;;;5.85;62.26;101242.50;5210690;28;20751;-40
2022/04/01 08:56:39;;;;;;;2.35;1.52;;;;;;;5.93;61.80;101255.94;5209906;28;20515;-41
2022/04/01 08:59:12;;;;;;;3.22;1.90;;;;;;;5.81;61.53;101246.28;5192726;28;20708;-44
2022/04/01 09:01:45;;;;;;;3.47;2.15;;;;;;;5.88;61.38;101258.00;5195054;28;20436;-41
2022/04/01 09:04:23;;;;;;;3.00;2.17;;;;;;;6.00;61.22;101251.91;5202887;28;20557;-43
2022/04/01 09:06:55;;;;;;;5.73;1.70;;;;;;;6.11;60.81;101258.19;5210684;28;20661;-41
2022/04/01 09:09:30;;;;;;;5.00;2.10;;;;;;;6.14;60.92;101247.47;5209052;28;20424;-41
2022/04/01 09:12:12;;;;;;;2.83;1.83;;;;;;;5.99;60.66;101254.66;5170420;28;20414;-43
2022/04/01 09:14:53;;;;;;;3.70;2.10;;;;;;;5.98;60.25;101259.06;5201308;28;20413;-41
2022/04/01 09:17:42;;;;;;;3.38;1.80;;;;;;;5.97;60.12;101257.38;5191464;28;20854;-41
2022/04/01 09:20:15;;;;;;;3.90;1.90;;;;;;;6.00;59.87;101277.31;5205012;28;20917;-40
2022/04/01 09:22:47;;;;;;;3.25;2.15;;;;;;;5.94;59.75;101286.44;5209467;28;20492;-41
2022/04/01 09:25:21;;;;;;;3.00;2.15;;;;;;;5.89;59.13;101291.16;5206833;28;20520;-40
2022/04/01 09:27:55;;;;;;;4.15;2.15;;;;;;;5.69;59.07;101268.94;5209503;28;20608;-40
2022/04/01 09:30:31;;;;;;;3.70;2.38;;;;;;;5.72;58.86;101281.00;5206112;28;20516;-41
2022/04/01 09:33:05;;;;;;;3.40;2.00;;;;;;;5.85;58.92;101294.09;5195756;28;20501;-41
2022/04/01 09:35:38;;;;;;;3.47;1.80;;;;;;;5.87;58.65;101303.53;5206517;28;20414;-50
2022/04/01 09:38:10;;;;;;;4.65;2.50;;;;;;;5.93;58.43;101292.63;5209694;28;20417;-42
2022/04/01 09:40:44;;;;;;;5.78;2.13;;;;;;;6.04;58.09;101297.13;5198419;28;20490;-40
2022/04/01 09:43:24;;;;;;;4.60;2.33;;;;;;;6.13;58.14;101298.25;5226734;28;20425;-41
2022/04/01 09:46:01;;;;;;;3.25;2.20;;;;;;;6.08;58.04;101297.75;5209479;28;20745;-41
2022/04/01 09:48:43;;;;;;;3.60;2.53;;;;;;;6.04;58.00;101304.13;5189796;28;20549;-43
2022/04/01 09:51:16;;;;;;;4.90;2.28;;;;;;;5.97;57.85;101304.56;5207596;28;20443;-43
2022/04/01 09:53:53;;;;;;;4.67;2.40;;;;;;;6.02;57.69;101314.75;5199275;28;20582;-40
2022/04/01 09:56:41;;;;;;;3.67;2.45;;;;;;;6.02;57.36;101311.28;5186549;28;20895;-38
2022/04/01 09:59:17;;;;;;;5.53;2.40;;;;;;;5.99;57.10;101309.72;5203694;28;20824;-41
2022/04/01 10:01:50;;;;;;;4.00;2.38;;;;;;;5.86;56.95;101322.81;5210248;28;20453;-41
2022/04/01 10:04:22;;;;;;;5.68;2.75;;;;;;;5.67;56.89;101322.44;5209227;28;20472;-41
2022/04/01 10:06:55;;;;;;;4.90;2.97;;;;;;;5.60;56.64;101319.38;5209413;28;20481;-42
2022/04/01 10:09:29;;;;;;;4.88;2.78;;;;;;;5.39;56.70;101311.22;5213509;28;20414;-43
2022/04/01 10:12:08;;;;;;;4.22;2.25;;;;;;;5.45;56.70;101334.38;5213159;28;20479;-40
2022/04/01 10:14:42;;;;;;;6.38;2.70;;;;;;;5.39;56.47;101344.41;5193323;28;20959;-40
2022/04/01 10:17:16;;;;;;;3.80;2.30;;;;;;;5.22;56.32;101317.59;5202439;28;20925;-41
2022/04/01 10:19:50;;;;;;;3.33;2.63;;;;;;;5.35;55.98;101335.94;5212643;28;20471;-41
2022/04/01 10:22:22;;;;;;;3.70;2.92;;;;;;;5.41;56.02;101342.53;5209092;28;20423;-40
2022/04/01 10:25:05;;;;;;;3.78;3.10;;;;;;;5.47;55.73;101339.50;5199215;28;20597;-41
2022/04/01 10:27:40;;;;;;;6.68;3.08;;;;;;;5.50;55.59;101348.00;5195917;28;20737;-41
2022/04/01 10:30:18;;;;;;;5.40;3.28;;;;;;;5.49;55.57;101343.72;5203668;28;20423;-40
2022/04/01 10:32:50;;;;;;;8.07;3.30;;;;;;;5.43;55.56;101345.91;5202333;28;20437;-40
2022/04/01 10:35:26;;;;;;;8.00;2.70;;;;;;;5.46;55.48;101362.25;5200832;28;20493;-40
2022/04/01 10:38:19;;;;;;;6.90;3.53;;;;;;;5.49;55.38;101348.94;5211709;28;20470;-41
2022/04/01 10:41:11;;;;;;;10.03;3.70;;;;;;;5.00;55.15;101307.72;5213127;28;20491;-40
2022/04/01 10:43:45;;;;;;;3.83;3.20;;;;;;;5.17;55.22;101348.50;5215569;28;20535;-40
2022/04/01 10:46:20;;;;;;;3.90;2.57;;;;;;;5.29;54.97;101360.75;5220823;28;20504;-40
2022/04/01 10:52:19;;;;;;;10.32;3.22;;;;;;;5.04;55.09;101356.31;5210906;28;20490;-41
2022/04/01 10:55:09;;;;;;;6.82;3.30;;;;;;;5.14;55.00;101355.69;5198601;28;20900;-40
2022/04/01 10:57:45;;;;;;;6.43;2.67;;;;;;;5.16;54.79;101365.13;5195208;28;20687;-40
2022/04/01 11:00:19;;;;;;;5.15;2.85;;;;;;;5.13;54.62;101343.56;5193105;28;20459;-41
2022/04/01 11:03:13;;;;;;;3.20;2.70;;;;;;;5.12;54.33;101320.94;5205841;28;20762;-40
2022/04/01 11:05:45;;;;;;;3.67;3.22;;;;;;;5.38;54.08;101368.94;5206029;28;20971;-40
2022/04/01 11:08:20;;;;;;;3.70;2.83;;;;;;;5.32;54.07;101362.34;5195037;28;20503;-40
2022/04/01 11:11:12;;;;;;;5.93;3.15;;;;;;;5.41;53.74;101359.09;5199507;28;20433;-40
2022/04/01 11:14:01;;;;;;;2.63;2.40;;;;;;;5.47;53.88;101363.91;5200407;28;20842;-42
2022/04/01 11:16:47;;;;;;;4.38;3.05;;;;;;;5.49;53.58;101367.28;5198823;28;20434;-41
2022/04/01 11:19:26;;;;;;;5.65;2.55;;;;;;;5.54;53.27;101365.19;5208195;28;20416;-40
2022/04/01 11:21:59;;;;;;;5.45;2.72;;;;;;;5.46;53.20;101364.88;5224033;28;20476;-40
2022/04/01 11:24:35;;;;;;;6.65;2.55;;;;;;;5.31;53.34;101360.66;5209053;28;20440;-42
2022/04/01 11:27:21;;;;;;;4.47;2.50;;;;;;;5.38;53.44;101379.41;5217907;28;20411;-40
2022/04/01 11:30:12;;;;;;;4.57;2.80;;;;;;;5.42;53.10;101378.25;5225504;28;20605;-42
2022/04/01 11:32:48;;;;;;;4.00;2.70;;;;;;;5.17;53.04;101408.72;5203659;28;20500;-39
2022/04/01 11:35:24;;;;;;;5.50;2.72;;;;;;;5.30;53.16;101377.34;5209848;28;20520;-41
2022/04/01 11:37:58;;;;;;;5.43;3.42;;;;;;;5.25;52.81;101387.25;5196229;28;20415;-44
2022/04/01 11:40:33;;;;;;;3.10;2.70;;;;;;;5.13;53.20;101386.28;5214791;28;20403;-41
2022/04/01 11:43:09;;;;;;;3.47;2.77;;;;;;;4.87;52.99;101351.38;5213755;28;20450;-40
2022/04/01 11:45:48;;;;;;;4.38;3.25;;;;;;;4.97;53.15;101381.22;5211788;28;20490;-41
2022/04/01 11:48:27;;;;;;;6.35;2.95;;;;;;;5.08;53.10;101384.00;5218834;28;20826;-43
2022/04/01 11:51:04;;;;;;;3.95;2.83;;;;;;;5.28;52.96;101387.91;5230988;28;20420;-42
2022/04/01 11:53:41;;;;;;;5.40;3.33;;;;;;;5.27;53.00;101364.44;5222574;28;20427;-41
2022/04/01 11:56:15;;;;;;;5.43;2.72;;;;;;;5.60;52.76;101379.63;5207398;28;20408;-42
2022/04/01 11:58:54;;;;;;;3.65;3.17;;;;;;;5.70;52.57;101395.59;5212166;28;20435;-42
2022/04/01 12:01:30;;;;;;;3.00;2.65;;;;;;;5.67;52.58;101380.09;5190686;28;20411;-42
2022/04/01 12:04:05;;;;;;;6.40;3.22;;;;;;;5.58;52.81;101385.97;5207188;28;20411;-43
2022/04/01 12:09:33;;;;;;;3.72;2.47;;;;;;;5.63;52.54;101402.19;5234718;28;20486;-42
2022/04/01 12:12:08;;;;;;;3.85;2.58;;;;;;;5.60;52.70;101405.00;5187573;28;20775;-41
2022/04/01 12:14:41;;;;;;;3.73;2.80;;;;;;;5.60;52.38;101405.00;5218866;28;20420;-41
2022/04/01 12:17:14;;;;;;;4.78;2.58;;;;;;;5.37;52.00;101365.50;5233920;28;20421;-41
2022/04/01 12:19:46;;;;;;;3.25;2.60;;;;;;;5.65;51.92;101401.13;5209842;28;20417;-42
2022/04/01 12:22:24;;;;;;;3.88;2.85;;;;;;;5.69;52.06;101388.66;5212712;28;20463;-44
2022/04/01 12:24:56;;;;;;;4.18;2.70;;;;;;;5.89;51.98;101411.75;5213516;28;20402;-42